Time;durP1;ratioP1;P1;durP2;ratioP2;P2;SDS_P1;SDS_P2;PMS_P1;PMS_P2;Temp;Humidity;BMP_temperature;BMP_pressure;BME280_temperature;BME280_humidity;BME280_pressure;Samples;Min_cycle;Max_cycle;Signal;HPM_P1;HPM_P2
2023/01/11 00:01:24;;;;;;;20.95;4.63;;;15.00;76.70;;;;;;5004666;28;20041;-79
2023/01/11 00:04:08;;;;;;;18.52;5.28;;;14.90;76.50;;;;;;4997430;28;20041;-78
2023/01/11 00:06:53;;;;;;;13.27;4.07;;;14.90;76.60;;;;;;5012562;28;20045;-79
2023/01/11 00:09:38;;;;;;;15.77;4.13;;;14.90;76.60;;;;;;4993972;28;20121;-78
2023/01/11 00:12:22;;;;;;;19.00;4.18;;;14.90;76.70;;;;;;4992723;28;20052;-78
2023/01/11 00:15:07;;;;;;;23.23;6.40;;;14.80;76.50;;;;;;5001132;28;20049;-79
2023/01/11 00:17:52;;;;;;;15.50;3.40;;;14.80;76.50;;;;;;5008765;28;20048;-79
2023/01/11 00:20:41;;;;;;;15.50;3.65;;;14.80;76.50;;;;;;5008070;28;20041;-79
2023/01/11 00:23:25;;;;;;;13.15;5.07;;;14.80;76.60;;;;;;5011074;28;20103;-79
2023/01/11 00:26:12;;;;;;;20.20;5.25;;;14.70;76.40;;;;;;4995511;28;20121;-78
2023/01/11 00:28:56;;;;;;;22.02;4.80;;;14.70;76.40;;;;;;5009699;28;20033;-79
2023/01/11 00:31:41;;;;;;;16.73;4.30;;;14.70;76.50;;;;;;5007278;28;20053;-79
2023/01/11 00:34:25;;;;;;;18.23;5.10;;;14.70;76.50;;;;;;5007201;28;20080;-78
2023/01/11 00:37:10;;;;;;;18.92;4.45;;;14.60;76.30;;;;;;4998199;28;20078;-79
2023/01/11 00:39:55;;;;;;;16.58;6.15;;;14.60;76.80;;;;;;5002814;28;20045;-80
2023/01/11 00:47:55;;;;;;;15.95;3.45;;;14.60;76.40;;;;;;5012851;28;20836;-79
2023/01/11 00:49:03;;;;;;;31.88;5.32;;;14.60;76.40;;;;;;4998676;28;20656;-80
2023/01/11 00:51:47;;;;;;;13.20;3.78;;;14.60;76.40;;;;;;5001099;28;20090;-79
2023/01/11 00:54:32;;;;;;;22.08;5.15;;;14.60;76.40;;;;;;5004280;28;20058;-79
2023/01/11 00:57:16;;;;;;;15.75;4.70;;;14.60;76.40;;;;;;5003915;28;20048;-78
2023/01/11 01:00:02;;;;;;;14.18;3.72;;;14.60;76.40;;;;;;5006506;28;20091;-78
2023/01/11 01:02:48;;;;;;;20.90;6.32;;;14.60;76.40;;;;;;5012588;28;20570;-79
2023/01/11 01:05:32;;;;;;;15.52;4.30;;;14.50;76.20;;;;;;5017611;28;20045;-79
2023/01/11 01:08:17;;;;;;;18.23;4.57;;;14.50;76.10;;;;;;5023120;28;20048;-79
2023/01/11 01:11:02;;;;;;;19.25;4.90;;;14.50;76.10;;;;;;5017302;28;20117;-78
2023/01/11 01:16:55;;;;;;;14.07;5.35;;;14.50;76.10;;;;;;5013650;28;20104;-80
2023/01/11 01:19:39;;;;;;;21.98;6.07;;;14.40;75.90;;;;;;5019973;28;20064;-80
2023/01/11 01:22:24;;;;;;;17.25;3.67;;;14.40;75.90;;;;;;5004417;28;20096;-79
2023/01/11 01:25:09;;;;;;;17.55;4.63;;;14.40;75.90;;;;;;5015979;28;20044;-79
2023/01/11 01:27:54;;;;;;;16.52;4.43;;;14.40;75.90;;;;;;5007359;28;20179;-80
2023/01/11 01:30:40;;;;;;;17.63;3.40;;;14.40;75.90;;;;;;5010251;28;20143;-80
2023/01/11 01:33:24;;;;;;;17.52;5.00;;;14.30;75.80;;;;;;4998453;28;20442;-79
2023/01/11 01:36:09;;;;;;;10.45;3.80;;;14.30;75.80;;;;;;5008102;28;20060;-79
2023/01/11 01:38:54;;;;;;;16.17;3.55;;;14.30;75.80;;;;;;5014634;28;20532;-79
2023/01/11 01:41:38;;;;;;;16.38;3.92;;;14.30;75.80;;;;;;5003139;28;20509;-80
2023/01/11 01:44:56;;;;;;;16.27;4.38;;;14.30;75.80;;;;;;5001547;28;20044;-80
2023/01/11 01:47:43;;;;;;;17.38;5.40;;;14.30;75.80;;;;;;5014602;28;20044;-80
2023/01/11 01:50:36;;;;;;;19.10;4.13;;;14.30;75.80;;;;;;5002720;28;20080;-79
2023/01/11 01:53:26;;;;;;;12.63;3.17;;;14.20;75.60;;;;;;5008973;28;20594;-79
2023/01/11 01:56:17;;;;;;;19.70;4.57;;;14.20;75.60;;;;;;4997539;28;20617;-79
2023/01/11 01:59:11;;;;;;;16.73;4.00;;;14.20;75.70;;;;;;5004914;28;20045;-79
2023/01/11 02:01:56;;;;;;;14.80;3.40;;;14.10;75.50;;;;;;5014137;28;20049;-79
2023/01/11 02:04:43;;;;;;;18.42;3.72;;;14.20;75.70;;;;;;5029662;28;20085;-78
2023/01/11 02:07:32;;;;;;;16.52;4.40;;;14.10;75.50;;;;;;5011419;28;20083;-78
2023/01/11 02:10:20;;;;;;;19.13;4.20;;;14.10;75.60;;;;;;5005989;28;20516;-77
2023/01/11 02:13:10;;;;;;;18.23;4.03;;;14.00;75.50;;;;;;5001015;28;20444;-78
2023/01/11 02:16:08;;;;;;;15.25;4.78;;;14.00;75.50;;;;;;5022512;28;20041;-78
2023/01/11 02:18:53;;;;;;;12.07;3.47;;;14.00;75.60;;;;;;4998744;28;20547;-78
2023/01/11 02:22:11;;;;;;;19.77;4.88;;;14.00;75.50;;;;;;5001266;28;20098;-79
2023/01/11 02:25:47;;;;;;;14.13;3.72;;;14.00;75.50;;;;;;5016211;28;20123;-78
2023/01/11 02:28:40;;;;;;;18.65;4.40;;;14.00;75.50;;;;;;5040287;28;20031;-79
2023/01/11 02:31:48;;;;;;;18.23;6.10;;;14.00;75.50;;;;;;5039318;28;20080;-78
2023/01/11 02:34:53;;;;;;;18.90;4.88;;;13.90;75.30;;;;;;5033120;28;20683;-79
2023/01/11 02:37:56;;;;;;;12.48;3.45;;;14.00;75.50;;;;;;5045991;28;20155;-79
2023/01/11 02:40:41;;;;;;;15.82;4.07;;;13.90;75.30;;;;;;5034904;28;20504;-79
2023/01/11 02:46:48;;;;;;;23.40;4.78;;;13.90;75.40;;;;;;5036377;28;20067;-79
2023/01/11 02:49:39;;;;;;;21.55;4.22;;;13.80;75.20;;;;;;5032094;28;20128;-79
2023/01/11 02:52:35;;;;;;;16.45;3.50;;;13.80;75.20;;;;;;5030441;28;20048;-79
2023/01/11 02:55:26;;;;;;;14.02;3.78;;;13.80;75.30;;;;;;5020628;28;20048;-79
2023/01/11 02:58:12;;;;;;;21.50;4.45;;;13.70;75.10;;;;;;5036946;28;20258;-79
2023/01/11 03:00:58;;;;;;;19.40;4.47;;;13.70;75.20;;;;;;5025937;28;20539;-79
2023/01/11 03:03:45;;;;;;;21.05;3.70;;;13.70;75.20;;;;;;5002462;28;20040;-80
2023/01/11 03:06:34;;;;;;;20.98;5.57;;;13.70;75.30;;;;;;5004122;28;20512;-79
2023/01/11 03:09:45;;;;;;;23.10;4.18;;;13.70;75.20;;;;;;5018162;28;20052;-80
2023/01/11 03:12:56;;;;;;;16.55;4.55;;;13.60;75.00;;;;;;5014298;28;20064;-80
2023/01/11 03:16:19;;;;;;;11.90;3.85;;;13.60;75.00;;;;;;4997259;28;20121;-79
2023/01/11 03:19:17;;;;;;;17.33;4.03;;;13.60;75.00;;;;;;5013116;28;21018;-79
2023/01/11 03:22:22;;;;;;;14.40;3.33;;;13.50;74.90;;;;;;5002262;28;20040;-78
2023/01/11 03:25:19;;;;;;;14.70;3.95;;;13.50;74.90;;;;;;5013514;28;20088;-79
2023/01/11 03:28:24;;;;;;;13.27;3.25;;;13.50;74.90;;;;;;5004820;28;20040;-79
2023/01/11 03:31:17;;;;;;;13.60;3.45;;;13.60;75.10;;;;;;5004450;28;20045;-79
2023/01/11 03:34:13;;;;;;;15.15;3.80;;;13.50;74.80;;;;;;5001701;28;20750;-79
2023/01/11 03:37:17;;;;;;;12.40;3.72;;;13.50;74.80;;;;;;5001193;28;20037;-79
2023/01/11 03:40:09;;;;;;;15.25;4.53;;;13.50;74.80;;;;;;4998667;28;20033;-79
2023/01/11 03:43:11;;;;;;;15.13;3.58;;;13.50;74.80;;;;;;5012741;28;20169;-79
2023/01/11 03:46:09;;;;;;;13.90;3.78;;;13.50;74.80;;;;;;5008169;28;20036;-79
2023/01/11 03:48:59;;;;;;;17.10;3.55;;;13.50;74.70;;;;;;5011413;28;20133;-79
2023/01/11 03:51:44;;;;;;;13.27;4.35;;;13.50;74.70;;;;;;5009966;28;20127;-78
2023/01/11 03:54:30;;;;;;;11.95;3.03;;;13.50;74.70;;;;;;5002519;28;20061;-78
2023/01/11 03:57:24;;;;;;;17.25;3.05;;;13.50;74.60;;;;;;5004118;28;20054;-79
2023/01/11 04:00:10;;;;;;;13.90;2.85;;;13.50;74.60;;;;;;5007169;28;20192;-80
2023/01/11 04:02:54;;;;;;;8.75;2.55;;;13.50;74.60;;;;;;5000503;28;20053;-78
2023/01/11 04:05:42;;;;;;;11.82;3.63;;;13.40;74.40;;;;;;5006834;28;20651;-79
2023/01/11 04:08:27;;;;;;;11.07;2.50;;;13.40;74.30;;;;;;5004619;28;20059;-78
2023/01/11 04:11:12;;;;;;;13.32;4.28;;;13.40;74.30;;;;;;5004192;28;20169;-78
2023/01/11 04:13:57;;;;;;;13.13;3.42;;;13.40;74.20;;;;;;4993208;28;20109;-78
2023/01/11 04:16:41;;;;;;;8.38;2.50;;;13.40;74.20;;;;;;5009718;28;20040;-78
2023/01/11 04:19:26;;;;;;;9.25;2.50;;;13.40;74.10;;;;;;5001007;28;20064;-78
2023/01/11 04:22:11;;;;;;;13.30;3.67;;;13.30;73.90;;;;;;4996456;28;20041;-79
2023/01/11 04:24:55;;;;;;;5.03;1.98;;;13.30;73.90;;;;;;5008079;28;20080;-78
2023/01/11 04:27:40;;;;;;;8.63;1.92;;;13.30;73.90;;;;;;4997580;28;20092;-78
2023/01/11 04:30:24;;;;;;;8.48;2.72;;;13.30;74.00;;;;;;4990938;28;20041;-78
2023/01/11 04:33:11;;;;;;;7.78;2.10;;;13.20;73.80;;;;;;5006066;28;20091;-78
2023/01/11 04:35:56;;;;;;;7.63;1.52;;;13.20;73.80;;;;;;5011021;28;20092;-79
2023/01/11 04:38:41;;;;;;;10.02;2.40;;;13.20;73.80;;;;;;4999078;28;20121;-78
2023/01/11 04:44:28;;;;;;;9.27;2.08;;;13.10;73.70;;;;;;5002340;28;20089;-76
2023/01/11 04:47:14;;;;;;;5.80;1.88;;;13.00;73.60;;;;;;5004584;28;20104;-77
2023/01/11 04:49:58;;;;;;;9.15;3.25;;;13.00;73.60;;;;;;5009398;28;20040;-77
2023/01/11 04:52:43;;;;;;;4.97;1.15;;;12.90;73.40;;;;;;5002466;28;20052;-77
2023/01/11 04:55:29;;;;;;;6.82;2.20;;;12.90;73.50;;;;;;5002823;28;20056;-77
2023/01/11 04:58:13;;;;;;;7.90;1.77;;;12.80;73.80;;;;;;5012159;28;20068;-78
2023/01/11 05:00:58;;;;;;;4.28;1.42;;;12.80;73.40;;;;;;5002397;28;20064;-79
2023/01/11 05:03:44;;;;;;;7.65;2.08;;;12.70;73.20;;;;;;5008960;28;20048;-78
2023/01/11 05:06:28;;;;;;;6.00;1.33;;;12.70;73.30;;;;;;5007803;28;20057;-79
2023/01/11 05:09:17;;;;;;;6.45;1.90;;;12.70;73.30;;;;;;5024269;28;20069;-78
2023/01/11 05:12:02;;;;;;;7.57;1.88;;;12.60;73.10;;;;;;5008773;28;20048;-78
2023/01/11 05:14:46;;;;;;;5.97;2.70;;;12.60;73.20;;;;;;4995039;28;20405;-79
2023/01/11 05:17:31;;;;;;;11.40;2.10;;;12.60;73.20;;;;;;5008340;28;20076;-79
2023/01/11 05:20:16;;;;;;;6.75;1.70;;;12.60;73.20;;;;;;5002268;28;20119;-79
2023/01/11 05:23:00;;;;;;;6.75;2.53;;;12.60;73.20;;;;;;5006917;28;20089;-78
2023/01/11 05:25:45;;;;;;;5.38;1.85;;;12.60;73.20;;;;;;5009942;28;20044;-78
2023/01/11 05:28:29;;;;;;;5.97;1.33;;;12.60;73.20;;;;;;5006794;28;20049;-78
2023/01/11 05:31:15;;;;;;;6.57;2.35;;;12.60;73.20;;;;;;5007061;28;20049;-79
2023/01/11 05:33:59;;;;;;;4.10;1.40;;;12.70;73.30;;;;;;5009238;28;20108;-79
2023/01/11 05:36:44;;;;;;;9.30;2.58;;;12.60;73.60;;;;;;5008291;28;20044;-78
2023/01/11 05:39:28;;;;;;;6.60;1.42;;;12.70;73.20;;;;;;5009841;28;20472;-78
2023/01/11 05:42:13;;;;;;;6.25;1.75;;;12.70;73.20;;;;;;5006045;28;20738;-79
2023/01/11 05:48:00;;;;;;;8.32;1.52;;;12.70;73.20;;;;;;4998984;28;20083;-78
2023/01/11 05:50:53;;;;;;;5.50;1.60;;;12.70;73.10;;;;;;5008012;28;20056;-78
2023/01/11 05:53:37;;;;;;;5.63;1.50;;;12.70;73.60;;;;;;5010588;28;20052;-78
2023/01/11 05:56:22;;;;;;;2.85;1.10;;;12.70;73.10;;;;;;5002722;28;20135;-78
2023/01/11 05:59:07;;;;;;;5.20;1.25;;;12.80;73.20;;;;;;5004430;28;20551;-78
2023/01/11 06:01:51;;;;;;;6.55;1.20;;;12.80;73.20;;;;;;4995132;28;20114;-78
2023/01/11 06:04:36;;;;;;;6.28;1.60;;;12.80;73.00;;;;;;5004363;28;20073;-78
2023/01/11 06:07:23;;;;;;;9.57;2.55;;;12.80;73.00;;;;;;5004826;28;20067;-78
2023/01/11 06:10:09;;;;;;;4.00;1.30;;;12.80;73.00;;;;;;5009660;28;20864;-78
2023/01/11 06:13:25;;;;;;;7.82;2.03;;;12.80;73.00;;;;;;5015548;28;20600;-78
2023/01/11 06:16:02;;;;;;;3.33;0.95;;;12.80;73.00;;;;;;5006632;28;20076;-78
2023/01/11 06:18:50;;;;;;;8.98;3.33;;;12.80;72.90;;;;;;5015210;28;20047;-79
2023/01/11 06:21:34;;;;;;;6.13;1.08;;;12.80;72.90;;;;;;5006768;28;20134;-80
2023/01/11 06:24:19;;;;;;;5.93;1.30;;;12.90;73.10;;;;;;5015315;28;20032;-79
2023/01/11 06:27:04;;;;;;;8.20;1.55;;;12.90;73.00;;;;;;5002992;28;20474;-79
2023/01/11 06:29:48;;;;;;;9.48;1.73;;;13.00;73.70;;;;;;5001029;28;20036;-78
2023/01/11 06:32:33;;;;;;;11.45;2.20;;;12.90;73.00;;;;;;5000083;28;20057;-78
2023/01/11 06:35:18;;;;;;;8.85;1.75;;;12.90;72.90;;;;;;5014673;28;20453;-80
2023/01/11 06:38:03;;;;;;;7.80;1.98;;;13.00;73.00;;;;;;5008910;28;20115;-79
2023/01/11 06:40:59;;;;;;;9.18;1.67;;;13.00;73.10;;;;;;5003813;28;20044;-79
2023/01/11 06:43:43;;;;;;;6.93;2.25;;;13.00;73.00;;;;;;5005841;28;20072;-78
2023/01/11 06:46:28;;;;;;;8.10;1.90;;;13.00;73.10;;;;;;5005930;28;20401;-78
2023/01/11 06:49:13;;;;;;;6.60;2.40;;;13.00;73.10;;;;;;5013036;28;20053;-79
2023/01/11 06:51:57;;;;;;;6.05;1.88;;;13.00;73.20;;;;;;4993810;28;20177;-80
2023/01/11 06:54:42;;;;;;;9.52;3.10;;;13.00;73.20;;;;;;5011969;28;20057;-89
2023/01/11 06:57:27;;;;;;;8.40;2.13;;;13.00;73.30;;;;;;4994069;28;20096;-89
2023/01/11 07:00:12;;;;;;;9.02;1.77;;;13.00;73.30;;;;;;5011557;28;20064;-86
2023/01/11 07:03:02;;;;;;;7.82;2.78;;;13.10;73.50;;;;;;5017599;28;20041;-86
2023/01/11 07:05:46;;;;;;;7.00;1.55;;;13.10;73.60;;;;;;5007004;28;20088;-87
2023/01/11 07:08:31;;;;;;;12.55;2.28;;;13.10;73.60;;;;;;5017051;28;21055;-86
2023/01/11 07:11:16;;;;;;;11.25;2.25;;;13.00;73.20;;;;;;5012452;28;20041;-90
2023/01/11 07:14:02;;;;;;;10.20;1.80;;;13.00;73.20;;;;;;5016482;28;20045;-90
2023/01/11 07:16:47;;;;;;;10.50;2.15;;;12.90;73.10;;;;;;5006063;28;20124;-79
2023/01/11 07:19:31;;;;;;;12.95;3.42;;;12.70;72.80;;;;;;5012940;28;20044;-79
2023/01/11 07:22:16;;;;;;;10.27;1.88;;;12.60;72.80;;;;;;5012890;28;20095;-79
2023/01/11 07:25:01;;;;;;;9.27;1.95;;;12.50;72.80;;;;;;5016242;28;20146;-79
2023/01/11 07:27:45;;;;;;;13.20;2.15;;;12.30;72.70;;;;;;5008578;28;20048;-88
2023/01/11 07:30:32;;;;;;;9.30;2.67;;;12.20;72.60;;;;;;5006062;28;20048;-88
2023/01/11 07:33:16;;;;;;;9.48;2.05;;;12.20;72.80;;;;;;5002250;28;20550;-86
2023/01/11 07:36:04;;;;;;;11.00;2.38;;;12.00;72.50;;;;;;5007946;28;20064;-85
2023/01/11 07:38:48;;;;;;;9.63;2.22;;;12.00;72.60;;;;;;5006284;28;20052;-85
2023/01/11 07:44:37;;;;;;;8.00;2.20;;;11.80;72.60;;;;;;5010490;28;20061;-85
2023/01/11 07:47:22;;;;;;;12.00;2.28;;;11.70;72.50;;;;;;5004988;28;20044;-87
2023/01/11 07:50:07;;;;;;;9.05;2.30;;;11.70;72.50;;;;;;5010230;28;20315;-89
2023/01/11 07:52:52;;;;;;;9.48;2.35;;;11.60;72.40;;;;;;5008582;28;20088;-89
2023/01/11 07:55:38;;;;;;;10.23;2.00;;;11.50;72.30;;;;;;5004130;28;20188;-89
2023/01/11 07:58:24;;;;;;;13.60;3.03;;;11.50;72.40;;;;;;5009006;28;20142;-88
2023/01/11 08:01:08;;;;;;;10.32;2.47;;;11.40;72.20;;;;;;5003643;28;20044;-88
2023/01/11 08:03:53;;;;;;;10.40;2.22;;;11.40;72.30;;;;;;4998698;28;20052;-86
2023/01/11 08:06:39;;;;;;;17.75;2.60;;;11.40;72.30;;;;;;4998459;28;20091;-86
2023/01/11 08:09:23;;;;;;;10.50;3.42;;;11.20;72.00;;;;;;5004085;28;20096;-84
2023/01/11 08:15:12;;;;;;;15.60;2.97;;;11.20;72.20;;;;;;5012043;28;20555;-79
2023/01/11 08:17:57;;;;;;;11.65;2.95;;;11.10;72.00;;;;;;5000805;28;21159;-90
2023/01/11 08:20:41;;;;;;;11.73;3.15;;;11.10;72.00;;;;;;5005098;28;20314;-87
2023/01/11 08:23:26;;;;;;;12.55;2.67;;;11.10;72.00;;;;;;5012284;28;20527;-87
2023/01/11 08:26:15;;;;;;;14.98;2.70;;;11.10;72.00;;;;;;5010991;28;20045;-85
2023/01/11 08:29:01;;;;;;;10.52;3.13;;;11.10;72.00;;;;;;5019434;28;20571;-88
2023/01/11 08:31:47;;;;;;;12.02;3.13;;;11.00;71.80;;;;;;5010459;28;20348;-86
2023/01/11 08:34:33;;;;;;;15.15;3.85;;;11.00;71.80;;;;;;4998150;28;20032;-85
2023/01/11 08:37:18;;;;;;;9.88;2.45;;;11.00;71.80;;;;;;5005767;28;20508;-85
2023/01/11 08:40:03;;;;;;;10.52;2.70;;;11.00;71.80;;;;;;5006505;28;20060;-86
2023/01/11 08:42:47;;;;;;;12.57;2.30;;;11.00;71.80;;;;;;5018697;28;20048;-84
2023/01/11 08:45:33;;;;;;;8.93;2.55;;;11.00;71.80;;;;;;5007224;28;20053;-84
2023/01/11 08:48:17;;;;;;;12.07;3.10;;;11.00;71.80;;;;;;5005114;28;20127;-88
2023/01/11 08:51:02;;;;;;;14.10;3.95;;;11.00;71.80;;;;;;5009845;28;20037;-89
2023/01/11 08:53:46;;;;;;;9.90;2.65;;;10.90;71.60;;;;;;5001117;28;20061;-85
2023/01/11 08:56:31;;;;;;;12.02;3.42;;;11.00;71.80;;;;;;5018324;28;20045;-85
2023/01/11 08:59:18;;;;;;;12.15;2.67;;;11.00;71.80;;;;;;5003530;28;20501;-87
2023/01/11 09:02:05;;;;;;;11.23;2.63;;;11.00;71.70;;;;;;4998157;28;20177;-89
2023/01/11 09:04:49;;;;;;;11.65;2.75;;;11.00;71.60;;;;;;5008826;28;20105;-86
2023/01/11 09:07:34;;;;;;;12.38;4.00;;;11.00;71.50;;;;;;5005968;28;20029;-85
2023/01/11 09:10:19;;;;;;;9.07;2.15;;;11.00;71.50;;;;;;4990430;28;20049;-90
2023/01/11 09:13:03;;;;;;;8.02;2.67;;;11.00;71.50;;;;;;5003391;28;20072;-79
2023/01/11 09:15:48;;;;;;;14.07;3.95;;;11.10;71.60;;;;;;4996824;28;20385;-79
2023/01/11 09:18:32;;;;;;;11.63;4.40;;;11.10;71.50;;;;;;5002876;28;20152;-79
2023/01/11 09:21:17;;;;;;;11.70;2.05;;;11.10;71.50;;;;;;5013468;28;20132;-79
2023/01/11 09:24:02;;;;;;;13.63;3.28;;;11.10;71.40;;;;;;5009238;28;20040;-78
2023/01/11 09:26:47;;;;;;;8.68;3.15;;;11.20;71.50;;;;;;5004600;28;20095;-79
2023/01/11 09:29:31;;;;;;;9.93;2.70;;;11.20;71.40;;;;;;5004352;28;20405;-79
2023/01/11 09:32:16;;;;;;;10.02;4.63;;;11.30;71.40;;;;;;5011272;28;20049;-86
2023/01/11 09:35:02;;;;;;;9.10;2.00;;;11.40;71.40;;;;;;5000795;28;20080;-85
2023/01/11 09:37:48;;;;;;;9.70;2.08;;;11.40;71.30;;;;;;5010519;28;20120;-79
2023/01/11 09:40:45;;;;;;;8.50;2.88;;;11.50;71.30;;;;;;5009824;28;20037;-79
2023/01/11 09:43:30;;;;;;;10.25;2.20;;;11.50;71.30;;;;;;5005241;28;20064;-78
2023/01/11 09:46:14;;;;;;;8.35;1.83;;;11.50;71.20;;;;;;5003844;28;20092;-78
2023/01/11 09:48:59;;;;;;;7.25;2.65;;;11.50;71.10;;;;;;5007438;28;20175;-79
2023/01/11 09:51:45;;;;;;;12.65;2.50;;;11.50;71.00;;;;;;5002247;28;20069;-85
2023/01/11 09:54:30;;;;;;;10.90;2.08;;;11.50;71.00;;;;;;4992845;28;20088;-85
2023/01/11 09:57:33;;;;;;;6.38;2.28;;;11.50;71.00;;;;;;5018587;28;20045;-92
2023/01/11 10:00:30;;;;;;;11.25;2.05;;;11.50;71.00;;;;;;5011540;28;20056;-91
2023/01/11 10:03:34;;;;;;;8.52;2.00;;;11.50;70.90;;;;;;4998819;28;20045;-89
2023/01/11 10:07:15;;;;;;;7.30;1.63;;;11.60;71.00;;;;;;5002085;28;20418;-87
2023/01/11 10:10:19;;;;;;;10.23;1.77;;;11.60;70.90;;;;;;4937180;28;20328;-85
2023/01/11 10:13:27;;;;;;;10.00;3.10;;;11.60;70.90;;;;;;4999473;28;20131;-87
2023/01/11 10:16:34;;;;;;;7.65;1.73;;;11.60;70.80;;;;;;5000258;28;20455;-84
2023/01/11 10:19:28;;;;;;;11.05;3.00;;;11.60;70.90;;;;;;5007304;28;20172;-87
2023/01/11 10:22:22;;;;;;;5.38;2.10;;;11.60;70.80;;;;;;5004548;28;20188;-88
2023/01/11 10:25:32;;;;;;;8.30;2.25;;;11.70;70.90;;;;;;5007094;28;20141;-85
2023/01/11 10:28:30;;;;;;;9.80;2.10;;;11.70;70.80;;;;;;5006346;28;20044;-86
2023/01/11 10:38:09;;;;;;;6.55;2.00;;;11.90;70.70;;;;;;4999090;28;20029;-84
2023/01/11 10:41:14;;;;;;;9.80;2.60;;;12.00;70.70;;;;;;5003529;28;20048;-85
2023/01/11 10:44:18;;;;;;;9.55;2.15;;;12.10;70.60;;;;;;5009718;28;20029;-85
2023/01/11 10:47:04;;;;;;;7.00;2.20;;;12.20;70.60;;;;;;5010834;28;20099;-84
2023/01/11 10:50:05;;;;;;;9.38;2.55;;;12.20;70.50;;;;;;5002506;28;20084;-86
2023/01/11 10:53:14;;;;;;;12.30;2.53;;;12.20;70.40;;;;;;5003305;28;20073;-86
2023/01/11 10:56:11;;;;;;;15.05;3.25;;;12.10;70.30;;;;;;5000137;28;20129;-84
2023/01/11 10:59:09;;;;;;;11.13;2.70;;;12.10;70.40;;;;;;5004991;28;20093;-84
2023/01/11 11:02:11;;;;;;;11.75;3.28;;;12.00;70.30;;;;;;5006673;28;20040;-83
2023/01/11 11:05:08;;;;;;;8.32;2.63;;;11.90;70.30;;;;;;5004094;28;20130;-82
2023/01/11 11:08:11;;;;;;;11.82;3.00;;;11.90;70.40;;;;;;4996575;28;20544;-82
2023/01/11 11:11:00;;;;;;;12.55;2.97;;;11.80;70.40;;;;;;5006770;28;20048;-82
2023/01/11 11:14:01;;;;;;;9.93;2.08;;;11.80;70.50;;;;;;5010601;28;20559;-83
2023/01/11 11:16:55;;;;;;;8.23;2.75;;;11.80;70.50;;;;;;5005905;28;20048;-83
2023/01/11 11:19:40;;;;;;;9.20;3.33;;;11.80;70.50;;;;;;4991832;28;20057;-83
2023/01/11 11:22:25;;;;;;;10.45;1.63;;;11.80;70.40;;;;;;5006156;28;20084;-82
2023/01/11 11:25:26;;;;;;;8.05;2.53;;;11.90;70.30;;;;;;5009528;28;20040;-83
2023/01/11 11:28:14;;;;;;;10.30;2.25;;;11.90;70.20;;;;;;5012589;28;20052;-84
2023/01/11 11:31:03;;;;;;;13.60;3.13;;;12.00;70.30;;;;;;4991660;28;20259;-85
2023/01/11 11:33:49;;;;;;;10.00;2.72;;;12.00;70.30;;;;;;5011018;28;20429;-83
2023/01/11 11:36:45;;;;;;;10.10;2.08;;;12.00;70.30;;;;;;5005303;28;20037;-82
2023/01/11 11:39:31;;;;;;;9.13;2.00;;;11.90;70.10;;;;;;5009169;28;20056;-80
2023/01/11 11:42:20;;;;;;;10.85;2.05;;;11.90;70.10;;;;;;5010039;28;20044;-87
2023/01/11 11:45:10;;;;;;;11.80;2.58;;;11.90;70.10;;;;;;5005034;28;20105;-89
2023/01/11 11:48:00;;;;;;;8.57;2.55;;;11.90;70.20;;;;;;4997506;28;20091;-88
2023/01/11 11:50:46;;;;;;;7.32;1.98;;;12.00;70.70;;;;;;5002307;28;20090;-88
2023/01/11 11:53:38;;;;;;;8.10;2.85;;;12.00;70.80;;;;;;4991231;28;20054;-92
2023/01/11 11:56:32;;;;;;;11.65;1.83;;;12.10;70.90;;;;;;5010964;28;20041;-91
2023/01/11 11:59:21;;;;;;;6.15;1.85;;;12.20;71.50;;;;;;5002794;28;20417;-89
2023/01/11 12:02:25;;;;;;;7.68;2.38;;;12.20;70.80;;;;;;5002726;28;20040;-79
2023/01/11 12:05:10;;;;;;;10.52;2.30;;;12.30;70.90;;;;;;4997321;28;20049;-80
2023/01/11 12:07:55;;;;;;;10.50;2.72;;;12.30;70.80;;;;;;5010861;28;20088;-79
2023/01/11 12:10:48;;;;;;;5.93;2.72;;;12.20;70.60;;;;;;5006053;28;20157;-79
2023/01/11 12:13:38;;;;;;;6.93;2.22;;;12.20;70.70;;;;;;5012315;28;20549;-89
2023/01/11 12:16:22;;;;;;;8.63;3.15;;;12.20;70.70;;;;;;4999659;28;20416;-86
2023/01/11 12:19:28;;;;;;;10.88;2.50;;;12.20;70.70;;;;;;5007514;28;21004;-83
2023/01/11 12:22:22;;;;;;;13.18;3.72;;;12.20;70.70;;;;;;4998195;28;20544;-82
2023/01/11 12:25:27;;;;;;;6.22;2.00;;;12.10;70.60;;;;;;5009900;28;20060;-82
2023/01/11 12:28:44;;;;;;;10.48;2.20;;;12.10;70.70;;;;;;5000238;28;20040;-83
2023/01/11 12:31:46;;;;;;;8.65;1.92;;;12.00;70.50;;;;;;5006431;28;20194;-83
2023/01/11 12:34:52;;;;;;;5.40;2.22;;;12.00;70.70;;;;;;5012718;28;20448;-82
2023/01/11 12:37:55;;;;;;;8.40;2.25;;;11.90;70.50;;;;;;5000748;28;20488;-83
2023/01/11 12:41:03;;;;;;;7.10;2.15;;;11.90;70.60;;;;;;5008412;28;20072;-83
2023/01/11 12:44:17;;;;;;;14.32;3.40;;;11.80;70.50;;;;;;4997038;28;20044;-83
2023/01/11 12:47:35;;;;;;;11.75;1.67;;;11.70;70.40;;;;;;5004258;28;20504;-85
2023/01/11 12:50:30;;;;;;;9.90;1.98;;;11.70;70.50;;;;;;4995328;28;20096;-83
2023/01/11 12:53:26;;;;;;;8.68;2.13;;;11.60;70.40;;;;;;4999408;28;20552;-84
2023/01/11 12:56:45;;;;;;;12.68;3.00;;;11.60;70.50;;;;;;5008010;28;20276;-85
2023/01/11 13:00:07;;;;;;;7.53;1.83;;;11.50;70.40;;;;;;5008891;28;20048;-84
2023/01/11 13:02:58;;;;;;;7.03;2.40;;;11.50;70.50;;;;;;5008896;28;20044;-87
2023/01/11 13:05:59;;;;;;;6.95;2.03;;;11.40;70.40;;;;;;5016326;28;20142;-80
2023/01/11 13:09:18;;;;;;;8.40;2.53;;;11.40;70.50;;;;;;5016996;28;20075;-89
2023/01/11 13:12:09;;;;;;;9.88;2.50;;;11.30;70.50;;;;;;5019370;28;20099;-84
2023/01/11 13:15:16;;;;;;;7.03;1.98;;;11.30;70.60;;;;;;5018230;28;20104;-82
2023/01/11 13:18:27;;;;;;;8.15;1.80;;;11.20;71.00;;;;;;5025323;28;20044;-88
2023/01/11 13:21:27;;;;;;;6.75;1.65;;;11.20;70.50;;;;;;5019739;28;20482;-79
2023/01/11 13:24:18;;;;;;;10.85;2.72;;;11.20;70.60;;;;;;5012711;28;20064;-80
2023/01/11 13:27:10;;;;;;;6.82;1.92;;;11.20;70.70;;;;;;5011120;28;20040;-81
2023/01/11 13:29:58;;;;;;;10.40;2.22;;;11.10;70.60;;;;;;5001125;28;20524;-81
2023/01/11 13:32:52;;;;;;;10.50;2.95;;;11.10;70.60;;;;;;5008386;28;20103;-81
2023/01/11 13:35:42;;;;;;;13.35;3.28;;;11.10;70.70;;;;;;5010951;28;20143;-80
2023/01/11 13:38:40;;;;;;;8.75;2.25;;;11.10;70.80;;;;;;5009884;28;20134;-79
2023/01/11 13:41:34;;;;;;;7.45;2.58;;;11.10;70.90;;;;;;5016230;28;20569;-80
2023/01/11 13:44:25;;;;;;;7.97;2.15;;;11.00;70.70;;;;;;5008742;28;20048;-81
2023/01/11 13:47:35;;;;;;;12.05;2.60;;;11.10;71.00;;;;;;5003601;28;20092;-84
2023/01/11 13:50:42;;;;;;;9.07;2.28;;;11.00;70.90;;;;;;5002391;28;20233;-84
2023/01/11 13:53:30;;;;;;;8.25;2.38;;;11.10;71.00;;;;;;5030088;28;20073;-84
2023/01/11 13:56:37;;;;;;;9.50;2.40;;;11.10;71.00;;;;;;4991404;28;20065;-84
2023/01/11 13:59:29;;;;;;;7.22;1.83;;;11.10;71.10;;;;;;5007870;28;20128;-83
2023/01/11 14:02:14;;;;;;;6.60;1.75;;;11.10;71.10;;;;;;5007901;28;20061;-82
2023/01/11 14:05:06;;;;;;;5.00;1.75;;;11.00;71.00;;;;;;5000407;28;20111;-82
2023/01/11 14:08:22;;;;;;;9.43;2.67;;;11.00;71.00;;;;;;5007190;28;20048;-83
2023/01/11 14:11:23;;;;;;;9.48;1.83;;;11.10;71.20;;;;;;5019333;28;20053;-83
2023/01/11 14:14:17;;;;;;;11.10;2.08;;;11.00;71.10;;;;;;4994289;28;20684;-83
2023/01/11 14:17:35;;;;;;;12.63;2.03;;;11.00;71.20;;;;;;5006991;28;20033;-83
2023/01/11 14:20:31;;;;;;;7.40;1.88;;;10.90;71.00;;;;;;5011103;28;20036;-83
2023/01/11 14:23:17;;;;;;;10.07;1.95;;;11.00;71.20;;;;;;5008179;28;20291;-83
2023/01/11 14:26:20;;;;;;;8.60;2.30;;;11.00;71.20;;;;;;5018214;28;20493;-83
2023/01/11 14:29:11;;;;;;;13.40;2.45;;;11.00;71.20;;;;;;5010631;28;20481;-84
2023/01/11 14:32:24;;;;;;;11.15;2.88;;;11.00;71.20;;;;;;4999146;28;20416;-83
2023/01/11 14:35:17;;;;;;;10.20;2.33;;;11.00;71.20;;;;;;4980704;28;20053;-84
2023/01/11 14:38:20;;;;;;;;;;;11.00;71.20;;;;;;5014304;28;20032;-83
2023/01/11 14:41:07;;;;;;;13.93;2.17;;;11.00;71.10;;;;;;5004594;28;19916;-85
2023/01/11 14:44:30;;;;;;;16.23;3.67;;;11.00;71.00;;;;;;5007231;28;20044;-84
2023/01/11 14:47:43;;;;;;;10.25;3.13;;;11.00;71.00;;;;;;5005199;28;20253;-85
2023/01/11 14:50:48;;;;;;;13.03;2.07;;;11.10;71.60;;;;;;5022618;28;20445;-82
2023/01/11 14:53:47;;;;;;;11.50;2.83;;;11.10;71.00;;;;;;5007660;28;20060;-87
2023/01/11 14:56:41;;;;;;;10.48;2.03;;;11.20;71.10;;;;;;4997308;28;20037;-85
2023/01/11 14:59:33;;;;;;;10.63;2.40;;;11.20;71.00;;;;;;4999863;28;20104;-87
2023/01/11 15:02:28;;;;;;;8.68;2.20;;;11.20;71.00;;;;;;5008689;28;20169;-79
2023/01/11 15:05:31;;;;;;;9.98;2.58;;;11.30;71.10;;;;;;5006174;28;20045;-79
2023/01/11 15:08:41;;;;;;;9.90;2.03;;;11.30;71.10;;;;;;5009066;28;20467;-78
2023/01/11 15:11:36;;;;;;;10.95;2.90;;;11.30;71.10;;;;;;5008886;28;20118;-89
2023/01/11 15:14:32;;;;;;;7.03;2.35;;;11.30;71.10;;;;;;5025295;28;20659;-88